createdAt,value
2022-08-31T00:03:55.667Z,0.88
2022-08-31T00:08:57.708Z,0.90
2022-08-31T00:14:02.207Z,1.00
2022-08-31T00:19:05.452Z,1.13
2022-08-31T00:24:07.228Z,1.48
2022-08-31T00:29:09.630Z,1.10
2022-08-31T00:34:11.555Z,0.98
2022-08-31T00:39:14.906Z,1.05
2022-08-31T00:44:17.231Z,1.60
2022-08-31T00:49:31.222Z,1.02
2022-08-31T00:54:36.331Z,0.80
2022-08-31T00:59:40.969Z,1.52
2022-08-31T01:04:42.534Z,0.88
2022-08-31T01:09:53.259Z,0.93
2022-08-31T01:14:58.519Z,0.60
2022-08-31T01:20:15.451Z,0.63
2022-08-31T01:25:18.773Z,1.35
2022-08-31T01:30:23.543Z,0.70
2022-08-31T01:35:25.231Z,0.60
2022-08-31T01:40:34.089Z,0.68
2022-08-31T01:45:35.660Z,0.60
2022-08-31T01:50:37.181Z,0.60
2022-08-31T01:55:39.324Z,0.77
2022-08-31T02:00:41.391Z,0.60
2022-08-31T02:05:42.994Z,0.60
2022-08-31T02:10:44.558Z,1.38
2022-08-31T02:15:46.080Z,0.65
2022-08-31T02:20:47.570Z,0.60
2022-08-31T02:25:49.401Z,0.68
2022-08-31T02:30:50.909Z,0.65
2022-08-31T02:35:53.812Z,0.50
2022-08-31T02:40:55.401Z,0.47
2022-08-31T02:45:56.978Z,0.50
2022-08-31T02:51:05.682Z,0.50
2022-08-31T02:56:08.078Z,0.60
2022-08-31T03:01:10.347Z,0.60
2022-08-31T03:06:11.909Z,0.50
2022-08-31T03:11:14.194Z,0.60
2022-08-31T03:16:15.957Z,0.90
2022-08-31T03:21:17.499Z,0.40
2022-08-31T03:26:19.018Z,0.60
2022-08-31T03:31:20.599Z,0.50
2022-08-31T03:36:22.187Z,0.50
2022-08-31T03:41:25.378Z,0.40
2022-08-31T03:46:26.912Z,0.40
2022-08-31T03:51:28.951Z,0.50
2022-08-31T03:56:30.749Z,0.40
2022-08-31T04:01:32.304Z,0.38
2022-08-31T04:06:33.916Z,0.30
2022-08-31T04:11:45.136Z,0.40
2022-08-31T04:16:47.277Z,0.30
2022-08-31T04:21:50.090Z,0.52
2022-08-31T04:26:52.943Z,0.80
2022-08-31T04:31:54.483Z,0.60
2022-08-31T04:36:56.041Z,0.40
2022-08-31T04:41:57.523Z,0.65
2022-08-31T04:46:59.129Z,0.40
2022-08-31T04:52:00.721Z,0.50
2022-08-31T04:57:04.807Z,0.50
2022-08-31T05:02:06.401Z,0.50
2022-08-31T05:07:07.978Z,0.50
2022-08-31T05:12:09.476Z,0.50
2022-08-31T05:17:14.899Z,0.60
2022-08-31T05:22:16.841Z,0.63
2022-08-31T05:27:18.338Z,0.60
2022-08-31T05:32:19.860Z,0.50
2022-08-31T05:37:24.288Z,0.55
2022-08-31T05:42:26.240Z,0.50
2022-08-31T05:47:28.689Z,0.80
2022-08-31T05:52:30.237Z,0.60
2022-08-31T05:57:31.826Z,0.40
2022-08-31T06:02:35.084Z,0.55
2022-08-31T06:07:36.586Z,0.50
2022-08-31T06:12:39.042Z,0.60
2022-08-31T06:17:40.546Z,1.08
2022-08-31T06:22:45.134Z,0.60
2022-08-31T06:27:50.410Z,0.50
2022-08-31T06:32:54.698Z,0.50
2022-08-31T06:37:59.608Z,0.60
2022-08-31T06:43:01.110Z,1.27
2022-08-31T06:48:04.556Z,0.60
2022-08-31T06:53:06.062Z,0.80
2022-08-31T06:58:07.559Z,0.40
2022-08-31T07:03:24.242Z,0.43
2022-08-31T07:08:25.689Z,0.30
2022-08-31T07:13:27.215Z,0.40
2022-08-31T07:18:28.691Z,0.43
2022-08-31T07:23:30.191Z,0.50
2022-08-31T07:28:31.875Z,0.95
2022-08-31T07:33:38.962Z,0.50
2022-08-31T07:39:00.416Z,0.73
2022-08-31T07:44:02.012Z,0.55
2022-08-31T07:49:08.879Z,0.80
2022-08-31T07:54:10.941Z,0.50
2022-08-31T07:59:14.947Z,0.65
2022-08-31T08:04:26.234Z,0.60
2022-08-31T08:09:29.909Z,0.60
2022-08-31T08:14:36.264Z,1.13
2022-08-31T08:19:37.760Z,0.80
2022-08-31T08:24:40.039Z,0.82
2022-08-31T08:29:42.563Z,0.68
2022-08-31T08:34:44.751Z,0.80
2022-08-31T08:39:46.231Z,0.90
2022-08-31T08:44:48.104Z,0.70
2022-08-31T08:49:58.671Z,1.00
2022-08-31T08:55:04.110Z,0.50
2022-08-31T09:00:11.051Z,1.40
2022-08-31T09:05:12.568Z,1.00
2022-08-31T09:10:46.436Z,0.95
2022-08-31T09:16:09.315Z,0.52
2022-08-31T09:21:34.466Z,0.60
2022-08-31T09:27:17.281Z,0.60
2022-08-31T09:32:26.893Z,0.55
2022-08-31T09:37:38.113Z,0.68
2022-08-31T09:42:40.389Z,0.50
2022-08-31T09:47:53.470Z,0.50
2022-08-31T09:53:33.573Z,0.60
2022-08-31T09:58:35.086Z,0.90
2022-08-31T10:03:38.103Z,0.50
2022-08-31T10:08:46.191Z,0.40
2022-08-31T10:13:57.744Z,0.60
2022-08-31T10:19:09.754Z,0.63
2022-08-31T10:24:28.054Z,0.40
2022-08-31T10:29:40.223Z,0.60
2022-08-31T10:35:00.567Z,1.02
2022-08-31T10:40:10.166Z,0.40
2022-08-31T10:45:19.032Z,0.60
2022-08-31T10:50:45.097Z,0.70
2022-08-31T10:56:08.139Z,0.57
2022-08-31T11:01:34.628Z,0.60
2022-08-31T11:06:51.498Z,0.53
2022-08-31T11:12:04.974Z,0.30
2022-08-31T11:17:29.917Z,0.50
2022-08-31T11:22:38.163Z,0.60
2022-08-31T11:28:10.313Z,0.40
2022-08-31T11:33:20.336Z,0.38
2022-08-31T11:38:48.799Z,0.45
2022-08-31T11:43:52.254Z,0.50
2022-08-31T11:48:54.486Z,0.47
2022-08-31T11:53:56.238Z,0.40
2022-08-31T11:59:37.853Z,1.33
2022-08-31T12:04:43.412Z,0.60
2022-08-31T12:10:27.204Z,0.70
2022-08-31T12:15:51.365Z,0.50
2022-08-31T12:21:31.890Z,0.50
2022-08-31T12:26:45.543Z,0.65
2022-08-31T12:32:12.663Z,0.50
2022-08-31T12:37:19.143Z,0.68
2022-08-31T12:42:20.641Z,0.60
2022-08-31T12:47:56.003Z,0.43
2022-08-31T12:53:17.448Z,0.50
2022-08-31T12:58:56.420Z,0.68
2022-08-31T13:04:03.345Z,0.65
2022-08-31T13:14:19.917Z,0.60
2022-08-31T13:19:28.013Z,0.50
2022-08-31T13:24:33.454Z,0.63
2022-08-31T13:29:41.189Z,0.60
2022-08-31T13:34:42.821Z,0.50
2022-08-31T13:39:46.440Z,0.70
2022-08-31T13:44:54.394Z,0.60
2022-08-31T13:50:13.249Z,0.60
2022-08-31T13:55:30.971Z,0.50
2022-08-31T14:00:32.434Z,0.43
2022-08-31T14:05:38.034Z,0.47
2022-08-31T14:10:49.560Z,0.47
2022-08-31T14:15:54.910Z,0.50
2022-08-31T14:21:26.653Z,0.57
2022-08-31T14:26:34.183Z,0.70
2022-08-31T14:31:51.999Z,0.50
2022-08-31T14:37:08.655Z,0.40
2022-08-31T14:42:27.142Z,0.37
2022-08-31T14:47:31.700Z,0.45
2022-08-31T14:52:38.724Z,0.40
2022-08-31T14:57:43.811Z,0.40
2022-08-31T15:02:49.603Z,0.30
2022-08-31T15:07:53.406Z,0.55
2022-08-31T15:12:55.675Z,0.82
2022-08-31T15:17:57.251Z,0.50
2022-08-31T15:22:59.031Z,0.40
2022-08-31T15:28:01.765Z,0.40
2022-08-31T15:33:03.283Z,0.75
2022-08-31T15:38:06.437Z,0.98
2022-08-31T15:43:15.065Z,0.55
2022-08-31T15:48:35.369Z,0.50
2022-08-31T15:53:37.954Z,0.70
2022-08-31T15:58:39.468Z,0.47
2022-08-31T16:03:41.977Z,2.03
2022-08-31T16:08:43.569Z,0.55
2022-08-31T16:13:52.118Z,0.57
2022-08-31T16:18:57.096Z,0.50
2022-08-31T16:24:01.006Z,0.85
2022-08-31T16:29:04.807Z,0.77
2022-08-31T16:34:06.810Z,1.50
2022-08-31T16:39:09.146Z,0.60
2022-08-31T16:44:19.675Z,0.80
2022-08-31T16:49:33.572Z,0.70
2022-08-31T16:54:41.222Z,0.68
2022-08-31T16:59:43.365Z,0.63
2022-08-31T17:04:52.525Z,0.88
2022-08-31T17:10:03.952Z,0.80
2022-08-31T17:15:06.096Z,0.70
2022-08-31T17:20:08.281Z,0.65
2022-08-31T17:25:09.961Z,0.80
2022-08-31T17:30:11.677Z,1.13
2022-08-31T17:35:18.025Z,0.77
2022-08-31T17:40:19.784Z,0.80
2022-08-31T17:45:21.559Z,0.80
2022-08-31T17:50:23.055Z,1.20
2022-08-31T17:55:24.586Z,0.70
2022-08-31T18:00:28.256Z,0.75
2022-08-31T18:05:29.826Z,1.10
2022-08-31T18:10:31.543Z,0.82
2022-08-31T18:15:33.885Z,0.90
2022-08-31T18:20:39.316Z,0.80
2022-08-31T18:25:42.240Z,1.10
2022-08-31T18:30:44.090Z,0.98
2022-08-31T18:35:46.569Z,0.90
2022-08-31T18:41:06.531Z,0.98
2022-08-31T18:46:09.125Z,0.82
2022-08-31T18:51:13.629Z,0.77
2022-08-31T18:56:18.147Z,0.80
2022-08-31T19:01:19.723Z,0.88
2022-08-31T19:06:24.919Z,0.70
2022-08-31T19:11:27.132Z,1.15
2022-08-31T19:16:29.017Z,0.90
2022-08-31T19:21:33.161Z,1.00
2022-08-31T19:26:38.317Z,0.82
2022-08-31T19:31:44.259Z,1.00
2022-08-31T19:36:50.299Z,1.58
2022-08-31T19:41:56.823Z,1.00
2022-08-31T19:46:59.863Z,1.25
2022-08-31T19:52:05.700Z,1.50
2022-08-31T19:57:08.891Z,1.83
2022-08-31T20:02:11.295Z,2.53
2022-08-31T20:07:13.554Z,1.60
2022-08-31T20:12:15.089Z,1.40
2022-08-31T20:17:16.730Z,1.23
2022-08-31T20:22:20.264Z,1.50
2022-08-31T20:27:21.765Z,1.05
2022-08-31T20:32:25.566Z,0.95
2022-08-31T20:37:27.076Z,1.20
2022-08-31T20:42:28.614Z,0.98
2022-08-31T20:47:48.471Z,0.98
2022-08-31T20:52:51.000Z,1.20
2022-08-31T20:57:52.674Z,1.20
2022-08-31T21:02:55.334Z,1.30
2022-08-31T21:07:57.279Z,1.30
2022-08-31T21:13:00.978Z,1.08
2022-08-31T21:18:02.494Z,1.02
2022-08-31T21:23:04.430Z,0.90
2022-08-31T21:28:06.925Z,1.27
2022-08-31T21:33:08.408Z,1.17
2022-08-31T21:38:12.979Z,1.17
2022-08-31T21:43:14.715Z,1.02
2022-08-31T21:48:16.236Z,1.00
2022-08-31T21:53:18.630Z,1.05
2022-08-31T21:58:20.181Z,0.90
2022-08-31T22:03:22.635Z,1.40
2022-08-31T22:08:26.050Z,1.20
2022-08-31T22:13:27.562Z,0.95
2022-08-31T22:23:58.349Z,1.17
2022-08-31T22:28:59.928Z,1.20
2022-08-31T22:34:01.415Z,1.05
2022-08-31T22:39:12.738Z,1.50
2022-08-31T22:44:17.824Z,1.30
2022-08-31T22:49:19.597Z,1.20
2022-08-31T22:54:22.696Z,1.60
2022-08-31T22:59:30.405Z,1.65
2022-08-31T23:04:34.350Z,1.60
2022-08-31T23:09:36.197Z,1.30
2022-08-31T23:14:38.210Z,1.20
2022-08-31T23:19:43.453Z,1.17
2022-08-31T23:24:47.711Z,1.20
2022-08-31T23:29:52.673Z,1.60
2022-08-31T23:34:56.897Z,1.30
2022-08-31T23:39:59.881Z,1.50
2022-08-31T23:45:02.057Z,1.85
2022-08-31T23:50:09.328Z,2.08
